MMCS/CJS METAR and TAF weather

Enter ICAO airport designator
Station Type Date Time Source
MMCS METAR 2019/12/06 03:41 UTC NOAA

MMCS 060341Z 32005KT 10SM SKC 14/03 A3019


Station Type Date Time Source
MMCS Decoded METAR 2019/12/06 03:41 UTC NOAA

Ciudad Juarez International , Mexico (MMCS) 31-38N 106-26W
Dec 05, 2019 - 10:41 PM EST / 2019.12.06 0341 UTC
Wind: from the NW (320 degrees) at 6 MPH (5 KT):0
Visibility: 10 mile(s):0
Sky conditions: clear
Temperature: 57 F (14 C)
Dew Point: 37 F (3 C)
Relative Humidity: 47%
Pressure (altimeter): 30.19 in. Hg (1022 hPa)
ob: MMCS 060341Z 32005KT 10SM SKC 14/03 A3019
cycle: 3

Station Type Date Time Source
MMCS TAF 2019/12/06 06:58 UTC NOAA

TAF MMCS 060551Z 0606/0706 32005KT P6SM SKC
FM061800 12010KT P6SM SCT030 SCT240
BECMG 0703/0705 08005KT SKC

Example: see airport list